createdAt,value
2018-12-05T00:00:47.285Z,99548.85
2018-12-05T00:03:16.303Z,99548.81
2018-12-05T00:05:45.378Z,99548.44
2018-12-05T00:08:20.936Z,99554.59
2018-12-05T00:10:49.928Z,99561.21
2018-12-05T00:13:18.769Z,99557.91
2018-12-05T00:15:47.923Z,99556.08
2018-12-05T00:18:16.696Z,99557.98
2018-12-05T00:20:45.636Z,99562.44
2018-12-05T00:23:14.478Z,99559.13
2018-12-05T00:25:43.570Z,99561.59
2018-12-05T00:28:12.356Z,99558.09
2018-12-05T00:30:41.151Z,99565.50
2018-12-05T00:33:10.271Z,99563.19
2018-12-05T00:35:39.099Z,99556.19
2018-12-05T00:38:07.987Z,99561.30
2018-12-05T00:40:37.028Z,99561.52
2018-12-05T00:43:05.941Z,99561.03
2018-12-05T00:45:35.120Z,99561.30
2018-12-05T00:48:04.327Z,99558.73
2018-12-05T00:50:33.145Z,99558.20
2018-12-05T00:53:01.955Z,99554.66
2018-12-05T00:55:37.786Z,99558.53
2018-12-05T00:58:06.663Z,99555.38
2018-12-05T01:00:35.471Z,99556.98
2018-12-05T01:03:04.379Z,99549.48
2018-12-05T01:05:33.192Z,99557.87
2018-12-05T01:08:02.512Z,99562.81
2018-12-05T01:10:31.468Z,99557.98
2018-12-05T01:13:00.601Z,99558.61
2018-12-05T01:15:29.831Z,99562.70
2018-12-05T01:17:58.930Z,99556.30
2018-12-05T01:20:28.100Z,99552.64
2018-12-05T01:22:57.092Z,99549.25
2018-12-05T01:25:25.939Z,99548.43
2018-12-05T01:27:55.085Z,99548.63
2018-12-05T01:30:24.282Z,99544.34
2018-12-05T01:32:53.499Z,99541.47
2018-12-05T01:35:25.548Z,99544.15
2018-12-05T01:37:54.744Z,99550.18
2018-12-05T01:40:24.047Z,99549.22
2018-12-05T01:42:52.867Z,99550.18
2018-12-05T01:45:21.963Z,99550.66
2018-12-05T01:47:51.019Z,99549.66
2018-12-05T01:50:20.212Z,99548.25
2018-12-05T01:52:49.091Z,99543.37
2018-12-05T01:55:18.305Z,99537.72
2018-12-05T01:57:47.406Z,99540.70
2018-12-05T02:00:16.400Z,99543.19
2018-12-05T02:02:45.491Z,99543.78
2018-12-05T02:05:14.334Z,99544.97
2018-12-05T02:07:43.684Z,99543.44
2018-12-05T02:10:14.020Z,99547.47
2018-12-05T02:12:43.098Z,99545.64
2018-12-05T02:15:12.057Z,99546.41
2018-12-05T02:17:41.495Z,99556.26
2018-12-05T02:20:10.704Z,99552.24
2018-12-05T02:22:39.672Z,99561.95
2018-12-05T02:25:08.895Z,99548.92
2018-12-05T02:27:37.673Z,99552.84
2018-12-05T02:30:07.388Z,99554.14
2018-12-05T02:32:36.276Z,99557.00
2018-12-05T02:35:05.888Z,99562.39
2018-12-05T02:37:34.700Z,99562.28
2018-12-05T02:40:03.773Z,99561.91
2018-12-05T02:42:32.579Z,99568.05
2018-12-05T02:45:01.401Z,99571.27
2018-12-05T02:47:30.236Z,99576.67
2018-12-05T02:49:59.355Z,99570.55
2018-12-05T02:52:28.427Z,99580.11
2018-12-05T02:54:57.635Z,99578.23
2018-12-05T02:57:26.540Z,99580.42
2018-12-05T02:59:55.488Z,99587.03
2018-12-05T03:02:24.728Z,99586.05
2018-12-05T03:04:53.911Z,99583.78
2018-12-05T03:07:22.771Z,99585.50
2018-12-05T03:09:51.958Z,99591.25
2018-12-05T03:12:21.095Z,99587.48
2018-12-05T03:14:49.969Z,99584.02
2018-12-05T03:17:19.621Z,99589.95
2018-12-05T03:19:48.523Z,99591.80
2018-12-05T03:22:17.987Z,99593.73
2018-12-05T03:24:46.832Z,99592.06
2018-12-05T03:27:15.800Z,99594.09
2018-12-05T03:29:44.871Z,99600.09
2018-12-05T03:32:14.068Z,99592.69
2018-12-05T03:34:42.903Z,99597.14
2018-12-05T03:37:12.059Z,99593.99
2018-12-05T03:39:40.885Z,99595.23
2018-12-05T03:42:09.787Z,99598.28
2018-12-05T03:44:38.941Z,99599.67
2018-12-05T03:47:08.128Z,99604.19
2018-12-05T03:49:37.059Z,99603.30
2018-12-05T03:52:05.999Z,99608.52
2018-12-05T03:54:34.846Z,99598.16
2018-12-05T03:57:03.667Z,99607.39
2018-12-05T03:59:33.660Z,99610.09
2018-12-05T04:02:02.498Z,99608.28
2018-12-05T04:04:31.846Z,99607.39
2018-12-05T04:07:00.911Z,99611.23
2018-12-05T04:09:29.762Z,99617.43
2018-12-05T04:11:58.621Z,99612.22
2018-12-05T04:14:27.528Z,99615.33
2018-12-05T04:16:56.548Z,99617.45
2018-12-05T04:19:25.682Z,99619.30
2018-12-05T04:21:54.863Z,99624.95
2018-12-05T04:24:23.711Z,99619.68
2018-12-05T04:26:53.465Z,99625.66
2018-12-05T04:29:22.666Z,99625.27
2018-12-05T04:31:51.770Z,99625.30
2018-12-05T04:34:20.732Z,99627.16
2018-12-05T04:36:50.157Z,99637.70
2018-12-05T04:39:19.351Z,99646.28
2018-12-05T04:41:48.446Z,99643.64
2018-12-05T04:44:17.324Z,99641.63
2018-12-05T04:46:46.748Z,99646.00
2018-12-05T04:49:15.840Z,99640.23
2018-12-05T04:51:44.940Z,99642.31
2018-12-05T04:54:15.987Z,99641.81
2018-12-05T04:56:45.174Z,99646.66
2018-12-05T04:59:14.199Z,99656.52
2018-12-05T05:01:43.471Z,99655.22
2018-12-05T05:04:12.567Z,99671.42
2018-12-05T05:06:41.936Z,99678.59
2018-12-05T05:09:11.447Z,99673.00
2018-12-05T05:11:40.257Z,99671.61
2018-12-05T05:14:09.484Z,99674.60
2018-12-05T05:16:38.668Z,99682.01
2018-12-05T05:19:07.491Z,99676.82
2018-12-05T05:21:36.772Z,99682.52
2018-12-05T05:24:05.951Z,99684.58
2018-12-05T05:26:34.981Z,99688.36
2018-12-05T05:29:04.045Z,99698.34
2018-12-05T05:31:33.124Z,99699.30
2018-12-05T05:34:01.912Z,99699.23
2018-12-05T05:36:30.752Z,99701.02
2018-12-05T05:38:59.533Z,99702.34
2018-12-05T05:41:28.686Z,99699.48
2018-12-05T05:43:57.492Z,99699.08
2018-12-05T05:46:26.315Z,99694.50
2018-12-05T05:48:55.379Z,99704.62
2018-12-05T05:51:24.481Z,99711.48
2018-12-05T05:53:53.354Z,99709.55
2018-12-05T05:56:22.172Z,99717.38
2018-12-05T05:58:51.257Z,99723.11
2018-12-05T06:01:20.071Z,99719.48
2018-12-05T06:03:49.127Z,99722.41
2018-12-05T06:06:17.936Z,99731.58
2018-12-05T06:08:48.139Z,99733.59
2018-12-05T06:11:17.331Z,99738.81
2018-12-05T06:13:46.299Z,99742.56
2018-12-05T06:16:15.442Z,99741.39
2018-12-05T06:18:44.271Z,99743.18
2018-12-05T06:21:13.146Z,99743.92
2018-12-05T06:23:41.955Z,99745.43
2018-12-05T06:26:11.116Z,99742.88
2018-12-05T06:28:40.191Z,99758.05
2018-12-05T06:31:09.063Z,99748.65
2018-12-05T06:33:38.188Z,99760.83
2018-12-05T06:36:07.226Z,99761.31
2018-12-05T06:38:36.100Z,99766.94
2018-12-05T06:41:05.368Z,99763.20
2018-12-05T06:43:34.859Z,99757.72
2018-12-05T06:46:04.060Z,99748.22
2018-12-05T06:48:33.164Z,99756.53
2018-12-05T06:51:02.467Z,99760.11
2018-12-05T06:53:31.562Z,99766.19
2018-12-05T06:56:00.755Z,99769.86
2018-12-05T06:58:29.851Z,99766.03
2018-12-05T07:00:58.711Z,99763.05
2018-12-05T07:03:27.915Z,99773.32
2018-12-05T07:05:57.040Z,99769.16
2018-12-05T07:08:26.146Z,99770.61
2018-12-05T07:10:55.849Z,99773.48
2018-12-05T07:13:24.775Z,99779.05
2018-12-05T07:15:53.835Z,99771.50
2018-12-05T07:18:23.095Z,99774.80
2018-12-05T07:20:52.531Z,99777.43
2018-12-05T07:23:21.468Z,99778.04
2018-12-05T07:25:50.519Z,99778.80
2018-12-05T07:28:19.567Z,99777.80
2018-12-05T07:30:48.716Z,99780.44
2018-12-05T07:33:17.807Z,99784.49
2018-12-05T07:35:47.007Z,99786.04
2018-12-05T07:38:19.658Z,99788.80
2018-12-05T07:40:47.959Z,99782.19
2018-12-05T07:43:16.794Z,99776.99
2018-12-05T07:45:45.702Z,99785.58
2018-12-05T07:48:14.752Z,99788.47
2018-12-05T07:50:43.979Z,99784.75
2018-12-05T07:53:12.908Z,99791.91
2018-12-05T07:55:42.124Z,99787.58
2018-12-05T07:58:11.323Z,99792.84
2018-12-05T08:00:40.319Z,99791.91
2018-12-05T08:03:09.279Z,99796.48
2018-12-05T08:05:38.166Z,99796.57
2018-12-05T08:08:07.056Z,99795.58
2018-12-05T08:10:36.191Z,99794.13
2018-12-05T08:13:05.293Z,99800.00
2018-12-05T08:15:34.375Z,99795.28
2018-12-05T08:18:03.896Z,99793.15
2018-12-05T08:20:32.982Z,99800.02
2018-12-05T08:23:02.275Z,99795.78
2018-12-05T08:25:31.417Z,99797.23
2018-12-05T08:28:00.435Z,99791.81
2018-12-05T08:30:29.688Z,99799.12
2018-12-05T08:32:58.660Z,99795.08
2018-12-05T08:35:27.855Z,99797.23
2018-12-05T08:37:57.067Z,99803.22
2018-12-05T08:40:25.875Z,99799.77
2018-12-05T08:42:54.744Z,99798.22
2018-12-05T08:45:23.836Z,99801.51
2018-12-05T08:47:52.685Z,99799.53
2018-12-05T08:50:21.560Z,99799.25
2018-12-05T08:52:50.612Z,99795.54
2018-12-05T08:55:19.818Z,99793.39
2018-12-05T08:57:48.777Z,99790.53
2018-12-05T09:00:18.425Z,99796.35
2018-12-05T09:02:47.717Z,99790.30
2018-12-05T09:05:16.587Z,99785.17
2018-12-05T09:07:45.404Z,99792.38
2018-12-05T09:10:14.497Z,99791.78
2018-12-05T09:12:43.935Z,99793.48
2018-12-05T09:15:13.137Z,99790.68
2018-12-05T09:17:42.231Z,99791.80
2018-12-05T09:20:11.501Z,99797.27
2018-12-05T09:22:41.418Z,99800.40
2018-12-05T09:25:10.603Z,99791.92
2018-12-05T09:27:39.574Z,99811.27
2018-12-05T09:30:08.883Z,99806.86
2018-12-05T09:32:37.993Z,99802.56
2018-12-05T09:35:07.495Z,99802.61
2018-12-05T09:37:36.660Z,99804.26
2018-12-05T09:40:05.995Z,99813.13
2018-12-05T09:42:35.202Z,99809.61
2018-12-05T09:45:04.235Z,99817.11
2018-12-05T09:47:33.112Z,99813.97
2018-12-05T09:50:02.322Z,99817.16
2018-12-05T09:52:31.484Z,99810.63
2018-12-05T09:55:00.577Z,99825.97
2018-12-05T09:57:29.821Z,99808.34
2018-12-05T09:59:59.084Z,99823.75
2018-12-05T10:02:28.187Z,99814.67
2018-12-05T10:04:57.274Z,99818.28
2018-12-05T10:07:26.621Z,99819.91
2018-12-05T10:09:56.888Z,99817.51
2018-12-05T10:12:25.823Z,99813.94
2018-12-05T10:14:54.672Z,99817.58
2018-12-05T10:17:23.906Z,99823.67
2018-12-05T10:19:52.709Z,99827.71
2018-12-05T10:22:21.483Z,99824.30
2018-12-05T10:24:50.756Z,99819.05
2018-12-05T10:27:19.848Z,99836.43
2018-12-05T10:29:49.054Z,99830.38
2018-12-05T10:32:18.318Z,99821.55
2018-12-05T10:34:47.108Z,99827.88
2018-12-05T10:37:16.230Z,99818.36
2018-12-05T10:39:45.019Z,99829.84
2018-12-05T10:42:14.463Z,99827.23
2018-12-05T10:44:50.250Z,99823.09
2018-12-05T10:47:19.370Z,99831.78
2018-12-05T10:49:54.724Z,99837.20
2018-12-05T10:52:23.706Z,99826.59
2018-12-05T10:54:52.763Z,99832.20
2018-12-05T10:57:22.003Z,99832.40
2018-12-05T10:59:50.859Z,99817.20
2018-12-05T11:02:25.133Z,99827.81
2018-12-05T11:04:59.830Z,99829.52
2018-12-05T11:07:34.066Z,99825.17
2018-12-05T11:10:08.565Z,99827.98
2018-12-05T11:12:42.688Z,99816.84
2018-12-05T11:15:16.980Z,99821.14
2018-12-05T11:17:51.042Z,99823.39
2018-12-05T11:20:25.290Z,99817.84
2018-12-05T11:22:59.590Z,99826.23
2018-12-05T11:25:28.670Z,99823.21
2018-12-05T11:27:57.843Z,99820.19
2018-12-05T11:30:26.883Z,99816.61
2018-12-05T11:32:56.000Z,99823.48
2018-12-05T11:35:25.459Z,99826.83
2018-12-05T11:37:54.640Z,99822.52
2018-12-05T11:40:23.878Z,99823.45
2018-12-05T11:42:52.966Z,99819.17
2018-12-05T11:45:22.532Z,99821.04
2018-12-05T11:47:51.645Z,99819.95
2018-12-05T11:50:20.833Z,99823.29
2018-12-05T11:52:49.952Z,99819.41
2018-12-05T11:55:19.201Z,99817.51
2018-12-05T11:57:48.439Z,99824.49
2018-12-05T12:00:17.403Z,99825.04
2018-12-05T12:02:46.206Z,99822.94
2018-12-05T12:05:15.312Z,99821.94
2018-12-05T12:07:44.413Z,99823.45
2018-12-05T12:10:14.119Z,99818.59
2018-12-05T12:12:48.264Z,99816.23
2018-12-05T12:15:17.095Z,99814.40
2018-12-05T12:17:46.044Z,99822.90
2018-12-05T12:20:14.833Z,99815.45
2018-12-05T12:22:44.372Z,99832.55
2018-12-05T12:25:13.531Z,99818.04
2018-12-05T12:27:42.296Z,99821.99
2018-12-05T12:30:15.881Z,99821.84
2018-12-05T12:32:42.410Z,99819.95
2018-12-05T12:35:11.533Z,99817.77
2018-12-05T12:37:40.752Z,99820.72
2018-12-05T12:40:10.232Z,99826.66
2018-12-05T12:42:39.323Z,99827.91
2018-12-05T12:45:08.605Z,99829.23
2018-12-05T12:47:37.950Z,99827.33
2018-12-05T12:50:07.961Z,99832.52
2018-12-05T12:52:37.156Z,99837.34
2018-12-05T12:55:07.197Z,99835.87
2018-12-05T12:57:36.273Z,99840.20
2018-12-05T13:00:07.175Z,99840.94
2018-12-05T13:02:36.291Z,99843.42
2018-12-05T13:05:06.818Z,99840.00
2018-12-05T13:07:35.578Z,99839.00
2018-12-05T13:10:05.315Z,99842.09
2018-12-05T13:12:36.047Z,99843.56
2018-12-05T13:15:05.707Z,99843.91
2018-12-05T13:17:34.513Z,99854.13
2018-12-05T13:20:03.649Z,99846.77
2018-12-05T13:22:32.515Z,99854.77
2018-12-05T13:25:01.541Z,99849.09
2018-12-05T13:27:31.253Z,99860.04
2018-12-05T13:30:00.460Z,99858.33
2018-12-05T13:32:29.276Z,99850.74
2018-12-05T13:34:58.317Z,99858.86
2018-12-05T13:37:27.095Z,99862.89
2018-12-05T13:39:56.310Z,99864.00
2018-12-05T13:42:25.288Z,99857.47
2018-12-05T13:44:54.603Z,99865.16
2018-12-05T13:47:23.811Z,99862.88
2018-12-05T13:49:52.648Z,99879.08
2018-12-05T13:52:21.709Z,99867.86
2018-12-05T13:54:51.353Z,99876.50
2018-12-05T13:57:20.595Z,99881.55
2018-12-05T13:59:49.715Z,99876.67
2018-12-05T14:02:18.803Z,99884.12
2018-12-05T14:04:47.636Z,99877.34
2018-12-05T14:07:16.459Z,99900.30
2018-12-05T14:09:45.375Z,99903.13
2018-12-05T14:12:19.583Z,99892.59
2018-12-05T14:14:48.671Z,99904.58
2018-12-05T14:17:17.877Z,99921.01
2018-12-05T14:19:46.744Z,99911.66
2018-12-05T14:22:15.766Z,99915.94
2018-12-05T14:24:44.855Z,99915.02
2018-12-05T14:27:13.792Z,99926.57
2018-12-05T14:29:42.724Z,99917.42
2018-12-05T14:32:11.726Z,99920.05
2018-12-05T14:34:40.827Z,99925.45
2018-12-05T14:37:09.779Z,99934.80
2018-12-05T14:39:38.912Z,99922.11
2018-12-05T14:42:08.014Z,99929.37
2018-12-05T14:44:36.928Z,99930.02
2018-12-05T14:47:06.111Z,99933.51
2018-12-05T14:49:35.407Z,99938.34
2018-12-05T14:52:04.660Z,99938.98
2018-12-05T14:54:33.506Z,99932.07
2018-12-05T14:57:02.736Z,99939.17
2018-12-05T14:59:31.561Z,99941.04
2018-12-05T15:02:00.572Z,99951.81
2018-12-05T15:04:29.420Z,99939.11
2018-12-05T15:06:58.529Z,99939.38
2018-12-05T15:09:27.831Z,99944.65
2018-12-05T15:11:57.012Z,99942.14
2018-12-05T15:14:26.258Z,99947.95
2018-12-05T15:16:55.459Z,99947.15
2018-12-05T15:19:24.468Z,99956.81
2018-12-05T15:21:53.347Z,99959.53
2018-12-05T15:24:22.585Z,99957.84
2018-12-05T15:26:51.493Z,99958.30
2018-12-05T15:29:20.743Z,99970.59
2018-12-05T15:31:49.593Z,99969.28
2018-12-05T15:34:18.399Z,99982.21
2018-12-05T15:36:47.392Z,99990.56
2018-12-05T15:39:16.283Z,99990.90
2018-12-05T15:41:45.218Z,100004.05
2018-12-05T15:44:14.300Z,99999.25
2018-12-05T15:46:43.322Z,100006.28
2018-12-05T15:49:12.414Z,100009.09
2018-12-05T15:51:41.589Z,100010.42
2018-12-05T15:54:10.746Z,100015.52
2018-12-05T15:56:39.694Z,100013.80
2018-12-05T15:59:08.924Z,100019.14
2018-12-05T16:01:38.078Z,100013.48
2018-12-05T16:04:07.383Z,100010.39
2018-12-05T16:06:36.876Z,100026.22
2018-12-05T16:09:07.999Z,100011.88
2018-12-05T16:11:37.755Z,100023.30
2018-12-05T16:14:06.884Z,100017.59
2018-12-05T16:16:35.902Z,100023.50
2018-12-05T16:19:05.222Z,100016.47
2018-12-05T16:21:34.426Z,100016.29
2018-12-05T16:24:03.516Z,100005.40
2018-12-05T16:26:33.531Z,100020.42
2018-12-05T16:29:02.411Z,100022.65
2018-12-05T16:31:31.246Z,100014.31
2018-12-05T16:34:00.500Z,100029.34
2018-12-05T16:36:29.546Z,100021.57
2018-12-05T16:38:59.372Z,100025.00
2018-12-05T16:41:29.149Z,100030.37
2018-12-05T16:43:58.641Z,100035.57
2018-12-05T16:46:27.831Z,100041.17
2018-12-05T16:48:58.984Z,100046.08
2018-12-05T16:51:28.921Z,100045.68
2018-12-05T16:53:58.122Z,100060.70
2018-12-05T16:56:31.820Z,100054.94
2018-12-05T16:59:01.002Z,100058.07
2018-12-05T17:01:30.095Z,100063.50
2018-12-05T17:03:59.059Z,100057.34
2018-12-05T17:06:28.025Z,100066.48
2018-12-05T17:08:57.172Z,100070.48
2018-12-05T17:11:26.107Z,100071.89
2018-12-05T17:13:55.268Z,100068.91
2018-12-05T17:16:24.367Z,100077.70
2018-12-05T17:18:53.656Z,100079.08
2018-12-05T17:21:22.624Z,100083.02
2018-12-05T17:23:51.897Z,100088.67
2018-12-05T17:26:21.274Z,100083.03
2018-12-05T17:28:50.528Z,100087.48
2018-12-05T17:31:19.381Z,100094.61
2018-12-05T17:33:49.423Z,100089.25
2018-12-05T17:36:18.678Z,100092.78
2018-12-05T17:38:47.474Z,100089.15
2018-12-05T17:41:16.708Z,100089.08
2018-12-05T17:43:45.950Z,100109.19
2018-12-05T17:46:15.044Z,100112.72
2018-12-05T17:48:43.881Z,100112.72
2018-12-05T17:51:13.033Z,100112.67
2018-12-05T17:53:42.200Z,100119.80
2018-12-05T17:56:11.135Z,100126.38
2018-12-05T17:58:40.229Z,100118.09
2018-12-05T18:01:09.059Z,100118.15
2018-12-05T18:03:38.271Z,100115.98
2018-12-05T18:06:07.294Z,100129.21
2018-12-05T18:08:36.127Z,100122.70
2018-12-05T18:11:04.930Z,100130.64
2018-12-05T18:13:34.075Z,100140.68
2018-12-05T18:16:02.867Z,100130.17
2018-12-05T18:18:32.059Z,100138.41
2018-12-05T18:21:01.266Z,100141.13
2018-12-05T18:23:30.088Z,100145.53
2018-12-05T18:25:59.041Z,100146.34
2018-12-05T18:28:28.348Z,100146.74
2018-12-05T18:30:58.100Z,100161.70
2018-12-05T18:33:27.394Z,100152.09
2018-12-05T18:35:56.756Z,100162.15
2018-12-05T18:38:25.643Z,100158.52
2018-12-05T18:40:55.065Z,100161.64
2018-12-05T18:43:24.356Z,100162.95
2018-12-05T18:45:53.488Z,100163.41
2018-12-05T18:48:22.632Z,100171.86
2018-12-05T18:50:52.251Z,100166.95
2018-12-05T18:53:21.114Z,100173.11
2018-12-05T18:55:50.547Z,100181.87
2018-12-05T18:58:19.756Z,100188.48
2018-12-05T19:00:48.674Z,100195.86
2018-12-05T19:03:17.740Z,100196.30
2018-12-05T19:05:46.824Z,100193.73
2018-12-05T19:08:15.813Z,100193.37
2018-12-05T19:10:44.632Z,100197.77
2018-12-05T19:13:13.973Z,100204.29
2018-12-05T19:15:43.216Z,100196.50
2018-12-05T19:18:12.321Z,100203.88
2018-12-05T19:20:41.160Z,100203.63
2018-12-05T19:23:10.412Z,100205.25
2018-12-05T19:25:39.500Z,100209.19
2018-12-05T19:28:08.637Z,100206.52
2018-12-05T19:30:37.488Z,100203.48
2018-12-05T19:33:06.825Z,100201.35
2018-12-05T19:35:35.636Z,100209.69
2018-12-05T19:38:05.079Z,100209.34
2018-12-05T19:40:33.931Z,100218.47
2018-12-05T19:43:03.055Z,100215.91
2018-12-05T19:45:31.841Z,100214.64
2018-12-05T19:48:00.767Z,100229.17
2018-12-05T19:50:29.948Z,100231.30
2018-12-05T19:52:59.093Z,100219.53
2018-12-05T19:55:27.931Z,100228.27
2018-12-05T19:58:03.574Z,100229.63
2018-12-05T20:00:32.360Z,100237.46
2018-12-05T20:03:01.283Z,100233.66
2018-12-05T20:05:30.164Z,100233.12
2018-12-05T20:07:59.101Z,100235.34
2018-12-05T20:10:27.996Z,100246.34
2018-12-05T20:12:57.127Z,100240.64
2018-12-05T20:15:26.319Z,100250.38
2018-12-05T20:17:55.092Z,100251.74
2018-12-05T20:20:24.315Z,100253.55
2018-12-05T20:22:53.403Z,100257.94
2018-12-05T20:25:22.444Z,100250.92
2018-12-05T20:27:51.699Z,100262.83
2018-12-05T20:30:20.800Z,100265.88
2018-12-05T20:32:49.900Z,100253.70
2018-12-05T20:35:18.727Z,100259.12
2018-12-05T20:37:47.792Z,100261.75
2018-12-05T20:40:16.880Z,100266.59
2018-12-05T20:42:45.750Z,100268.31
2018-12-05T20:45:14.963Z,100271.41
2018-12-05T20:47:44.091Z,100266.23
2018-12-05T20:50:13.572Z,100266.23
2018-12-05T20:52:42.716Z,100265.30
2018-12-05T20:55:14.804Z,100274.11
2018-12-05T20:57:44.028Z,100276.74
2018-12-05T21:00:19.287Z,100275.52
2018-12-05T21:02:48.264Z,100277.73
2018-12-05T21:05:17.350Z,100287.42
2018-12-05T21:07:46.448Z,100292.25
2018-12-05T21:10:15.960Z,100291.36
2018-12-05T21:12:51.599Z,100295.34
2018-12-05T21:15:20.721Z,100287.50
2018-12-05T21:17:50.219Z,100297.50
2018-12-05T21:20:19.142Z,100299.23
2018-12-05T21:22:48.376Z,100302.44
2018-12-05T21:25:17.263Z,100312.07
2018-12-05T21:27:46.404Z,100311.62
2018-12-05T21:30:15.598Z,100306.38
2018-12-05T21:32:44.437Z,100315.19
2018-12-05T21:35:13.478Z,100314.28
2018-12-05T21:37:42.763Z,100308.22
2018-12-05T21:40:11.767Z,100309.57
2018-12-05T21:42:40.987Z,100311.30
2018-12-05T21:45:10.423Z,100309.53
2018-12-05T21:47:40.531Z,100310.84
2018-12-05T21:50:09.686Z,100312.16
2018-12-05T21:52:38.900Z,100311.80
2018-12-05T21:55:08.494Z,100315.73
2018-12-05T21:57:37.478Z,100314.87
2018-12-05T22:00:09.737Z,100315.73
2018-12-05T22:02:38.971Z,100314.63
2018-12-05T22:05:09.464Z,100310.20
2018-12-05T22:07:38.586Z,100313.31
2018-12-05T22:10:09.356Z,100316.34
2018-12-05T22:12:38.412Z,100320.73
2018-12-05T22:15:08.115Z,100320.38
2018-12-05T22:17:37.224Z,100316.48
2018-12-05T22:20:07.615Z,100307.78
2018-12-05T22:22:36.852Z,100311.68
2018-12-05T22:25:06.295Z,100310.00
2018-12-05T22:27:35.457Z,100313.07
2018-12-05T22:30:04.912Z,100310.33
2018-12-05T22:32:34.159Z,100311.76
2018-12-05T22:35:03.258Z,100312.21
2018-12-05T22:37:32.547Z,100317.01
2018-12-05T22:40:01.544Z,100304.02
2018-12-05T22:42:30.632Z,100303.20
2018-12-05T22:44:59.732Z,100303.69
2018-12-05T22:47:28.508Z,100302.91
2018-12-05T22:49:57.620Z,100297.22
2018-12-05T22:52:26.427Z,100290.20
2018-12-05T22:54:55.340Z,100298.56
2018-12-05T22:57:24.397Z,100298.23
2018-12-05T22:59:53.491Z,100295.13
2018-12-05T23:02:28.912Z,100294.72
2018-12-05T23:04:58.177Z,100300.94
2018-12-05T23:07:26.971Z,100292.99
2018-12-05T23:09:55.927Z,100298.77
2018-12-05T23:12:25.007Z,100307.45
2018-12-05T23:14:53.785Z,100308.69
2018-12-05T23:17:22.971Z,100307.86
2018-12-05T23:19:52.111Z,100301.72
2018-12-05T23:22:21.719Z,100301.76
2018-12-05T23:24:50.560Z,100300.94
2018-12-05T23:27:19.420Z,100303.64
2018-12-05T23:29:48.494Z,100296.75
2018-12-05T23:32:17.251Z,100301.09
2018-12-05T23:34:46.259Z,100303.19
2018-12-05T23:37:15.307Z,100304.95
2018-12-05T23:39:44.083Z,100305.48
2018-12-05T23:42:13.240Z,100311.51
2018-12-05T23:44:42.067Z,100314.09
2018-12-05T23:47:11.451Z,100314.55
2018-12-05T23:49:40.445Z,100307.66
2018-12-05T23:52:09.859Z,100307.24
2018-12-05T23:54:39.023Z,100313.43
2018-12-05T23:57:08.231Z,100310.36
2018-12-05T23:59:37.424Z,100322.16
